Terminal Aerodrome Forecast
Issued by NWS Wilmington, OH

Current Version | Previous Version | Graphics & Text | Print | Product List | Glossary On
Versions: 1 2 3 4 5 6 7 8 9 10 11 12 13 14 15 16 17 18 19 20 21 22 23 24 25 26 27 28 29
000
FTUS41 KILN 201245 AAA
TAFCVG
TAF AMD
KCVG 201245Z 2013/2118 07007KT 5SM BR OVC005
      TEMPO 2013/2014 1/4SM FG VV001
     FM201400 11005KT P6SM FEW015 SCT040
      TEMPO 2014/2015 BKN015
     FM201900 16005KT P6SM VCSH BKN050 BKN200
      TEMPO 2020/2022 3SM -TSRA BR BKN025CB OVC050
     FM211000 20006KT P6SM -SHRA VCTS SCT020CB OVC090=

USA.gov is the U.S. government's official web portal to all federal, state and local government web resources and services.